»·PEaware :: N520MP KOXR-KRAL

N520MP :: KOXR-KRAL

FLIGHT INFORMATION

Flight Status: Arrived
Operator: Privately registered:
United States
More flights under this callsign
Pilot: Manuel P. (9695)
Aircraft: BOMBARDIER BD-100 CHALLENGER 300
(CL30)
More flights by this aircraft type
Origin: KOXR Oxnard
United States
Destination: KRAL Riverside Mun
United States
More flights between these airports :: More routes between these airports
Route: +VTU044R GINNA V326 VNY V186 ITSME V264 POM V197 PDZ
File this flight plan on PilotEdge
Remarks: VTUN16 TEC ROUTE
Altitude:
(Current/Filed)
7,000ft
Speed:
(Current/Filed)
400kts
Departed: 17-Oct-17 04:26 PM
Arrived: 17-Oct-17 05:00 PM
Distance/Time
Traveled:
89nm/0:34
Distance/Time
To Go:
Arrived

Flight Plot

Page will automatically refresh every two minutes.

Flight plan parsing failed; only flown route is shown


Map Options




Map Legend


Flown Route
Filed Route
Departure Airport
Arrival Airport
Navaid (VOR, NDB)
Fix

Horizontal Profiles

Position Reports

Time Latitude Longitude Heading Altitude Ground
Speed
17-Oct-17 16:13 34.199131 -119.206771 359 49ft 0kts
17-Oct-17 16:14 34.199131 -119.206771 359 49ft 0kts
17-Oct-17 16:15 34.199131 -119.206771 359 49ft 0kts
17-Oct-17 16:16 34.199131 -119.206771 359 49ft 0kts
17-Oct-17 16:17 34.199131 -119.206771 359 49ft 0kts
17-Oct-17 16:18 34.199131 -119.206771 359 49ft 0kts
17-Oct-17 16:19 34.199131 -119.206771 359 49ft 0kts
17-Oct-17 16:20 34.199131 -119.206771 359 49ft 0kts
17-Oct-17 16:21 34.199131 -119.206771 359 49ft 0kts
17-Oct-17 16:22 34.199131 -119.206771 359 49ft 0kts
17-Oct-17 16:23 34.199131 -119.206771 359 49ft 0kts
17-Oct-17 16:24 34.199131 -119.206771 359 49ft 0kts
17-Oct-17 16:25 34.199131 -119.206771 359 49ft 0kts
17-Oct-17 16:26 34.199131 -119.206771 359 48ft 0kts
17-Oct-17 16:27 34.199789 -119.205388 91 48ft 12kts
17-Oct-17 16:28 34.199755 -119.201433 91 48ft 16kts
17-Oct-17 16:29 34.199720 -119.197987 89 48ft 7kts
17-Oct-17 16:30 34.200166 -119.197523 3 49ft 8kts
17-Oct-17 16:31 34.200085 -119.237538 267 1498ft 218kts
17-Oct-17 16:32 34.197611 -119.303430 267 3814ft 257kts
17-Oct-17 16:33 34.194415 -119.389139 267 6850ft 234kts
17-Oct-17 16:34 34.191443 -119.469572 267 6984ft 242kts
17-Oct-17 16:35 34.188522 -119.549212 267 6981ft 232kts
17-Oct-17 16:36 34.216355 -119.599775 18 6986ft 237kts
17-Oct-17 16:37 34.220131 -119.521834 116 7004ft 300kts
17-Oct-17 16:38 34.200316 -119.423340 96 6983ft 302kts
17-Oct-17 16:39 34.197577 -119.325628 89 6979ft 281kts
17-Oct-17 16:40 34.200358 -119.232179 87 6987ft 283kts
17-Oct-17 16:41 34.205274 -119.135674 86 6985ft 291kts
17-Oct-17 16:42 34.210821 -119.038443 86 6983ft 288kts
17-Oct-17 16:43 34.216410 -118.943567 86 6982ft 278kts
17-Oct-17 16:44 34.221856 -118.851338 86 6986ft 276kts
17-Oct-17 16:45 34.223083 -118.758296 89 6961ft 281kts
17-Oct-17 16:46 34.223268 -118.663496 89 6968ft 284kts
17-Oct-17 16:47 34.223423 -118.566777 89 7001ft 290kts
17-Oct-17 16:48 34.215323 -118.470984 109 7028ft 290kts
17-Oct-17 16:49 34.189522 -118.381994 110 6996ft 273kts
17-Oct-17 16:50 34.165583 -118.301960 110 6993ft 262kts
17-Oct-17 16:51 34.139633 -118.216156 110 6998ft 281kts
17-Oct-17 16:52 34.112694 -118.127342 112 6989ft 280kts
17-Oct-17 16:53 34.085746 -118.039552 112 6992ft 280kts
17-Oct-17 16:54 34.077153 -117.946453 90 7019ft 285kts
17-Oct-17 16:55 34.077866 -117.850157 90 7014ft 290kts
17-Oct-17 16:56 34.066666 -117.758514 101 6462ft 261kts
17-Oct-17 16:57 34.053074 -117.670374 101 4062ft 273kts
17-Oct-17 16:58 34.040600 -117.589451 102 3932ft 219kts
17-Oct-17 16:59 34.017059 -117.521481 125 3517ft 218kts
17-Oct-17 17:00 33.988507 -117.461206 113 3594ft 198kts
17-Oct-17 17:01 33.967094 -117.402239 119 4014ft 195kts
17-Oct-17 17:02 33.946873 -117.349512 138 3290ft 162kts
17-Oct-17 17:03 33.932450 -117.374903 300 1639ft 149kts
17-Oct-17 17:04 33.947347 -117.418128 282 1132ft 137kts
17-Oct-17 17:05 33.952091 -117.443517 219 823ft 5kts
17-Oct-17 17:06 33.951303 -117.443761 190 822ft 6kts
17-Oct-17 17:07 33.950412 -117.442959 236 822ft 0kts
17-Oct-17 17:08 33.950382 -117.443032 294 822ft 0kts
17-Oct-17 17:09 33.950389 -117.443046 296 822ft 0kts

Navigation Log

Ident Type
Flight plan parsing failed, navigation log unavailable